Time;durP1;ratioP1;P1;durP2;ratioP2;P2;SDS_P1;SDS_P2;PMS_P1;PMS_P2;Temp;Humidity;BMP_temperature;BMP_pressure;BME280_temperature;BME280_humidity;BME280_pressure;Samples;Min_cycle;Max_cycle;Signal;HPM_P1;HPM_P2
2023/09/01 00:00:46;;;;;;;6.03;2.90;;;;;;;-146.87;100.00;60295.22;4971292;28;20297;-51
2023/09/01 00:03:31;;;;;;;8.05;2.88;;;;;;;-146.87;100.00;60295.22;4958112;28;20297;-48
2023/09/01 00:05:58;;;;;;;8.82;2.88;;;;;;;-146.87;100.00;60295.22;4951769;28;20277;-47
2023/09/01 00:08:25;;;;;;;6.55;3.35;;;;;;;-146.87;100.00;60295.22;4951774;28;20175;-46
2023/09/01 00:10:51;;;;;;;2.45;2.10;;;;;;;-146.87;100.00;60295.22;4951364;28;20245;-48
2023/09/01 00:13:16;;;;;;;5.55;2.10;;;;;;;-146.87;100.00;60295.22;4951416;28;20527;-49
2023/09/01 00:15:42;;;;;;;6.43;3.05;;;;;;;-146.87;100.00;60295.22;4951465;28;20179;-47
2023/09/01 00:18:07;;;;;;;4.13;2.40;;;;;;;-146.87;100.00;60295.22;4951462;28;20183;-48
2023/09/01 00:20:36;;;;;;;6.00;2.40;;;;;;;-146.87;100.00;60295.22;4951230;28;20242;-49
2023/09/01 00:23:03;;;;;;;5.90;2.70;;;;;;;-146.87;100.00;60295.22;4968110;28;20206;-48
2023/09/01 00:25:29;;;;;;;4.75;2.08;;;;;;;-146.87;100.00;60295.22;4958139;28;20182;-47
2023/09/01 00:27:55;;;;;;;4.28;2.30;;;;;;;-146.87;100.00;60295.22;4951354;28;20183;-47
2023/09/01 00:30:20;;;;;;;5.07;2.25;;;;;;;-146.87;100.00;60295.22;4951259;28;20318;-47
2023/09/01 00:32:46;;;;;;;4.70;2.15;;;;;;;-146.87;100.00;60295.22;4949341;28;20193;-46
2023/09/01 00:35:11;;;;;;;6.00;2.35;;;;;;;-146.87;100.00;60295.22;4951226;28;20186;-47
2023/09/01 00:37:37;;;;;;;5.75;2.65;;;;;;;-146.87;100.00;60295.22;4955149;28;20182;-47
2023/09/01 00:40:04;;;;;;;6.47;1.98;;;;;;;-146.87;100.00;60295.22;4970395;28;20201;-48
2023/09/01 00:42:29;;;;;;;5.15;2.10;;;;;;;-146.87;100.00;60295.22;4968984;28;20174;-48
2023/09/01 00:44:55;;;;;;;6.82;2.10;;;;;;;-146.87;100.00;60295.22;4969020;28;20608;-47
2023/09/01 00:47:21;;;;;;;7.32;2.40;;;;;;;-146.87;100.00;60295.22;4979987;28;20184;-47
2023/09/01 00:49:46;;;;;;;8.73;2.72;;;;;;;-146.87;100.00;60295.22;4988305;28;20197;-49
2023/09/01 00:52:12;;;;;;;5.72;2.55;;;;;;;-146.87;100.00;60295.22;4989567;28;20662;-48
2023/09/01 00:54:37;;;;;;;7.15;2.42;;;;;;;-146.87;100.00;60295.22;4989403;28;20635;-48
2023/09/01 00:57:03;;;;;;;5.68;2.42;;;;;;;-146.87;100.00;60295.22;4988151;28;20188;-47
2023/09/01 00:59:29;;;;;;;3.95;2.08;;;;;;;-146.87;100.00;60295.22;4989437;28;20193;-47
2023/09/01 01:01:55;;;;;;;4.63;2.25;;;;;;;-146.87;100.00;60295.22;4988061;28;20228;-47
2023/09/01 01:04:23;;;;;;;5.95;2.08;;;;;;;-146.87;100.00;60295.22;4988805;28;20205;-48
2023/09/01 01:07:15;;;;;;;5.07;2.47;;;;;;;-146.87;100.00;60295.22;4989073;28;20177;-49
2023/09/01 01:09:53;;;;;;;7.53;2.83;;;;;;;-146.87;100.00;60295.22;4987626;28;20219;-50
2023/09/01 01:12:31;;;;;;;4.90;2.88;;;;;;;-146.87;100.00;60295.22;4978509;28;20875;-46
2023/09/01 01:14:59;;;;;;;6.22;2.60;;;;;;;-146.87;100.00;60295.22;4968362;28;20217;-50
2023/09/01 01:17:26;;;;;;;4.60;2.47;;;;;;;-146.87;100.00;60295.22;4965819;28;20206;-49
2023/09/01 01:19:54;;;;;;;7.05;2.67;;;;;;;-146.87;100.00;60295.22;4949074;29;20343;-50
2023/09/01 01:22:30;;;;;;;4.00;2.40;;;;;;;-146.87;100.00;60295.22;4948922;29;20191;-46
2023/09/01 01:24:55;;;;;;;3.97;2.10;;;;;;;-146.87;100.00;60295.22;4948630;29;20249;-51
2023/09/01 01:27:21;;;;;;;4.90;2.50;;;;;;;-146.87;100.00;60295.22;4950146;28;20202;-48
2023/09/01 01:29:47;;;;;;;2.78;2.10;;;;;;;-146.87;100.00;60295.22;4948918;29;20198;-47
2023/09/01 01:32:14;;;;;;;4.55;2.10;;;;;;;-146.87;100.00;60295.22;4950287;28;20506;-45
2023/09/01 01:34:47;;;;;;;7.03;2.47;;;;;;;-146.87;100.00;60295.22;4950233;28;20613;-47
2023/09/01 01:37:32;;;;;;;6.05;2.25;;;;;;;-146.87;100.00;60295.22;4950184;28;20202;-49
2023/09/01 01:40:05;;;;;;;3.92;1.85;;;;;;;-146.87;100.00;60295.22;4950266;28;20570;-46
2023/09/01 01:42:33;;;;;;;4.68;2.35;;;;;;;-146.87;100.00;60295.22;4950323;28;20277;-48
2023/09/01 01:45:00;;;;;;;4.93;2.25;;;;;;;-146.87;100.00;60295.22;4951453;28;20206;-47
2023/09/01 01:47:26;;;;;;;8.07;2.65;;;;;;;-146.87;100.00;60295.22;4954045;28;20286;-47
2023/09/01 01:49:52;;;;;;;6.50;2.35;;;;;;;-146.87;100.00;60295.22;4952653;29;20233;-48
2023/09/01 01:52:17;;;;;;;9.20;2.30;;;;;;;-146.87;100.00;60295.22;4952433;29;20178;-50
2023/09/01 01:54:43;;;;;;;6.13;2.80;;;;;;;-146.87;100.00;60295.22;4953860;28;20170;-49
2023/09/01 01:57:14;;;;;;;4.10;2.38;;;;;;;-146.87;100.00;60295.22;4955059;28;20170;-48
2023/09/01 01:59:40;;;;;;;5.50;2.35;;;;;;;-146.87;100.00;60295.22;4971820;28;20228;-47
2023/09/01 02:02:06;;;;;;;6.10;2.20;;;;;;;-146.87;100.00;60295.22;4982090;28;20204;-48
2023/09/01 02:04:32;;;;;;;4.78;2.42;;;;;;;-146.87;100.00;60295.22;4990985;28;20866;-48
2023/09/01 02:06:58;;;;;;;5.35;2.50;;;;;;;-146.87;100.00;60295.22;4991172;28;20173;-46
2023/09/01 02:09:23;;;;;;;3.50;2.25;;;;;;;-146.87;100.00;60295.22;4971425;28;20201;-49
2023/09/01 02:11:49;;;;;;;5.80;3.00;;;;;;;-146.87;100.00;60295.22;4972906;28;20233;-50
2023/09/01 02:14:14;;;;;;;4.72;3.15;;;;;;;-146.87;100.00;60295.22;4969328;28;20174;-46
2023/09/01 02:16:40;;;;;;;5.65;3.10;;;;;;;-146.87;100.00;60295.22;4952218;29;20183;-49
2023/09/01 02:19:09;;;;;;;7.32;3.80;;;;;;;-146.87;100.00;60295.22;4953743;28;20206;-52
2023/09/01 02:21:34;;;;;;;6.00;3.58;;;;;;;-146.87;100.00;60295.22;4951985;29;20245;-47
2023/09/01 02:24:00;;;;;;;6.63;3.70;;;;;;;-146.87;100.00;60295.22;4951699;29;20265;-48
2023/09/01 02:26:25;;;;;;;6.05;4.25;;;;;;;-146.87;100.00;60295.22;4951954;29;20270;-48
2023/09/01 02:28:51;;;;;;;7.22;4.18;;;;;;;-146.87;100.00;60295.22;4951838;29;20182;-48
2023/09/01 02:31:17;;;;;;;7.18;5.35;;;;;;;-146.87;100.00;60295.22;4953169;28;20194;-49
2023/09/01 02:33:43;;;;;;;7.50;4.70;;;;;;;-146.87;100.00;60295.22;4951514;29;20179;-49
2023/09/01 02:36:35;;;;;;;6.55;4.70;;;;;;;-146.87;100.00;60295.22;4963505;28;20277;-49
2023/09/01 02:39:01;;;;;;;6.05;4.40;;;;;;;-146.87;100.00;60295.22;4990613;28;20185;-48
2023/09/01 02:41:28;;;;;;;6.90;5.00;;;;;;;-146.87;100.00;60295.22;4972494;28;20172;-51
2023/09/01 02:43:54;;;;;;;8.05;4.30;;;;;;;-146.87;100.00;60295.22;4972532;28;20617;-48
2023/09/01 02:46:20;;;;;;;8.93;4.93;;;;;;;-146.87;100.00;60295.22;4962217;28;20217;-50
2023/09/01 02:48:46;;;;;;;11.73;5.82;;;;;;;-146.87;100.00;60295.22;4951976;29;20237;-50
2023/09/01 02:51:12;;;;;;;7.78;5.65;;;;;;;-146.87;100.00;60295.22;4952842;28;20581;-52
2023/09/01 02:53:38;;;;;;;7.30;5.90;;;;;;;-146.87;100.00;60295.22;4962426;28;20174;-47
2023/09/01 02:56:03;;;;;;;9.50;5.63;;;;;;;-146.87;100.00;60295.22;4989515;28;20173;-47
2023/09/01 02:58:29;;;;;;;10.98;6.57;;;;;;;-146.87;100.00;60295.22;4990460;28;20185;-47
2023/09/01 03:00:55;;;;;;;8.32;5.43;;;;;;;-146.87;100.00;60295.22;4990067;28;20205;-48
2023/09/01 03:03:22;;;;;;;10.18;5.18;;;;;;;-146.87;100.00;60295.22;4974048;28;20544;-49
2023/09/01 03:05:49;;;;;;;5.80;5.03;;;;;;;-146.87;100.00;60295.22;4991614;28;20219;-46
2023/09/01 03:08:20;;;;;;;7.75;5.35;;;;;;;-146.87;100.00;60295.22;4989856;28;20170;-48
2023/09/01 03:10:47;;;;;;;8.70;5.13;;;;;;;-146.87;100.00;60295.22;4985799;28;20551;-49
2023/09/01 03:13:12;;;;;;;10.70;5.53;;;;;;;-146.87;100.00;60295.22;4970695;28;20203;-50
2023/09/01 03:15:40;;;;;;;10.30;5.43;;;;;;;-146.87;100.00;60295.22;4970692;28;20185;-49
2023/09/01 03:18:06;;;;;;;8.13;5.00;;;;;;;-146.87;100.00;60295.22;4971679;28;20281;-48
2023/09/01 03:20:34;;;;;;;8.30;4.88;;;;;;;-146.87;100.00;60295.22;4951309;28;20202;-47
2023/09/01 03:22:59;;;;;;;7.03;5.10;;;;;;;-146.87;100.00;60295.22;4950927;28;20261;-47
2023/09/01 03:25:26;;;;;;;9.25;5.88;;;;;;;-146.87;100.00;60295.22;4950959;28;20194;-47
2023/09/01 03:27:51;;;;;;;9.27;5.68;;;;;;;-146.87;100.00;60295.22;4951306;28;20277;-48
2023/09/01 03:30:17;;;;;;;9.35;6.13;;;;;;;-146.87;100.00;60295.22;4950911;29;20299;-45
2023/09/01 03:32:43;;;;;;;10.63;5.60;;;;;;;-146.87;100.00;60295.22;4951052;29;20257;-47
2023/09/01 03:35:09;;;;;;;9.82;5.95;;;;;;;-146.87;100.00;60295.22;4950999;29;20672;-47
2023/09/01 03:37:35;;;;;;;12.05;5.72;;;;;;;-146.87;100.00;60295.22;4962923;28;20213;-47
2023/09/01 03:40:01;;;;;;;11.95;5.15;;;;;;;-146.87;100.00;60295.22;4971507;28;20187;-46
2023/09/01 03:42:27;;;;;;;7.72;5.38;;;;;;;-146.87;100.00;60295.22;4968260;28;20197;-46
2023/09/01 03:44:52;;;;;;;8.15;5.50;;;;;;;-146.87;100.00;60295.22;4949768;28;20195;-48
2023/09/01 03:47:18;;;;;;;6.43;5.05;;;;;;;-146.87;100.00;60295.22;4952227;28;20642;-49
2023/09/01 03:49:44;;;;;;;8.30;5.25;;;;;;;-146.87;100.00;60295.22;4986179;28;20197;-50
2023/09/01 03:52:10;;;;;;;11.38;5.45;;;;;;;-146.87;100.00;60295.22;4954179;28;20252;-47
2023/09/01 03:54:35;;;;;;;7.22;5.05;;;;;;;-146.87;100.00;60295.22;4975559;28;20195;-47
2023/09/01 03:57:01;;;;;;;8.73;4.85;;;;;;;-146.87;100.00;60295.22;4990783;28;20162;-48
2023/09/01 03:59:26;;;;;;;6.45;5.05;;;;;;;-146.87;100.00;60295.22;4978149;28;20213;-46
2023/09/01 04:01:52;;;;;;;10.15;5.32;;;;;;;-146.87;100.00;60295.22;4976375;28;20182;-45
2023/09/01 04:04:18;;;;;;;6.22;4.20;;;;;;;-146.87;100.00;60295.22;4970732;28;20209;-46
2023/09/01 04:06:44;;;;;;;9.93;4.90;;;;;;;-146.87;100.00;60295.22;4983848;28;20590;-47
2023/09/01 04:09:10;;;;;;;5.05;3.95;;;;;;;-146.87;100.00;60295.22;4969315;28;20633;-45
2023/09/01 04:11:36;;;;;;;5.25;4.18;;;;;;;-146.87;100.00;60295.22;4981230;28;20200;-45
2023/09/01 04:14:01;;;;;;;7.03;4.80;;;;;;;-146.87;100.00;60295.22;4988970;28;20162;-43
2023/09/01 04:16:27;;;;;;;10.98;4.45;;;;;;;-146.87;100.00;60295.22;4988928;28;20166;-43
2023/09/01 04:18:56;;;;;;;6.65;4.45;;;;;;;-146.87;100.00;60295.22;4989080;28;20303;-44
2023/09/01 04:21:22;;;;;;;5.97;3.65;;;;;;;-146.87;100.00;60295.22;4988475;28;20170;-45
2023/09/01 04:23:48;;;;;;;8.18;3.70;;;;;;;-146.87;100.00;60295.22;4988515;28;20301;-47
2023/09/01 04:26:15;;;;;;;9.52;4.15;;;;;;;-146.87;100.00;60295.22;4988607;28;20181;-48
2023/09/01 04:28:41;;;;;;;5.20;3.65;;;;;;;-146.87;100.00;60295.22;4988190;28;20194;-47
2023/09/01 04:31:21;;;;;;;6.57;3.33;;;;;;;-146.87;100.00;60295.22;4989747;28;20201;-47
2023/09/01 04:33:47;;;;;;;7.85;3.28;;;;;;;-146.87;100.00;60295.22;4988356;28;20166;-44
2023/09/01 04:36:12;;;;;;;9.15;3.42;;;;;;;-146.87;100.00;60295.22;4988254;28;20193;-44
2023/09/01 04:38:38;;;;;;;6.78;3.30;;;;;;;-146.87;100.00;60295.22;4989883;28;20177;-45
2023/09/01 04:41:04;;;;;;;4.80;3.97;;;;;;;-146.87;100.00;60295.22;4987960;28;20197;-42
2023/09/01 04:43:34;;;;;;;6.63;3.03;;;;;;;-146.87;100.00;60295.22;4988045;28;20259;-47
2023/09/01 04:45:59;;;;;;;5.15;3.00;;;;;;;-146.87;100.00;60295.22;4988258;28;20173;-43
2023/09/01 04:48:27;;;;;;;4.55;2.97;;;;;;;-146.87;100.00;60295.22;4988130;28;20174;-43
2023/09/01 04:50:53;;;;;;;5.30;3.33;;;;;;;-146.87;100.00;60295.22;4987901;28;20284;-44
2023/09/01 04:53:20;;;;;;;6.80;2.97;;;;;;;-146.87;100.00;60295.22;4987704;28;20218;-48
2023/09/01 04:55:49;;;;;;;5.13;2.88;;;;;;;-146.87;100.00;60295.22;4988474;28;20698;-44
2023/09/01 04:58:16;;;;;;;5.45;3.00;;;;;;;-146.87;100.00;60295.22;4987489;28;20272;-42
2023/09/01 05:00:41;;;;;;;5.00;2.95;;;;;;;-146.87;100.00;60295.22;4968626;28;20202;-45
2023/09/01 05:03:08;;;;;;;7.40;3.25;;;;;;;-146.87;100.00;60295.22;4965982;28;20333;-47
2023/09/01 05:05:34;;;;;;;7.13;2.67;;;;;;;-146.87;100.00;60295.22;4987201;23;20316;-45
2023/09/01 05:07:59;;;;;;;5.75;2.50;;;;;;;-146.87;100.00;60295.22;4978045;28;20182;-44
2023/09/01 05:10:25;;;;;;;3.63;2.55;;;;;;;-146.87;100.00;60295.22;4963635;28;20206;-45
2023/09/01 05:12:50;;;;;;;4.40;2.60;;;;;;;-146.87;100.00;60295.22;4979232;28;20256;-44
2023/09/01 05:15:16;;;;;;;3.17;2.55;;;;;;;-146.87;100.00;60295.22;4992073;28;20712;-45
2023/09/01 05:17:41;;;;;;;4.20;2.53;;;;;;;-146.87;100.00;60295.22;4973334;28;20182;-46
2023/09/01 05:20:07;;;;;;;8.40;2.92;;;;;;;-146.87;100.00;60295.22;4975319;28;20365;-46
2023/09/01 05:22:34;;;;;;;4.22;2.75;;;;;;;-146.87;100.00;60295.22;4978433;28;20328;-45
2023/09/01 05:24:59;;;;;;;4.00;2.60;;;;;;;-146.87;100.00;60295.22;4978621;28;20295;-45
2023/09/01 05:27:25;;;;;;;4.35;2.75;;;;;;;-146.87;100.00;60295.22;4973531;28;20235;-45
2023/09/01 05:29:51;;;;;;;3.17;2.67;;;;;;;-146.87;100.00;60295.22;4978435;28;20252;-45
2023/09/01 05:32:18;;;;;;;5.47;2.42;;;;;;;-146.87;100.00;60295.22;4977082;28;20217;-47
2023/09/01 05:34:44;;;;;;;7.40;2.50;;;;;;;-146.87;100.00;60295.22;4982206;28;20174;-45
2023/09/01 05:37:13;;;;;;;7.22;2.40;;;;;;;-146.87;100.00;60295.22;4977477;28;20224;-45
2023/09/01 05:39:42;;;;;;;4.75;2.40;;;;;;;-146.87;100.00;60295.22;4977163;28;20209;-46
2023/09/01 05:42:08;;;;;;;4.30;2.28;;;;;;;-146.87;100.00;60295.22;4976023;28;20189;-45
2023/09/01 05:44:35;;;;;;;5.55;3.03;;;;;;;-146.87;100.00;60295.22;4976010;28;21077;-44
2023/09/01 05:47:03;;;;;;;3.58;2.30;;;;;;;-146.87;100.00;60295.22;4978372;28;20185;-45
2023/09/01 05:49:33;;;;;;;5.22;2.45;;;;;;;-146.87;100.00;60295.22;4983406;28;20205;-46
2023/09/01 05:51:59;;;;;;;4.05;2.53;;;;;;;-146.87;100.00;60295.22;4976250;28;20178;-45
2023/09/01 05:54:25;;;;;;;4.50;2.30;;;;;;;-146.87;100.00;60295.22;4978869;28;20185;-46
2023/09/01 05:56:51;;;;;;;5.15;2.35;;;;;;;-146.87;100.00;60295.22;4976536;28;20253;-46
2023/09/01 05:59:17;;;;;;;6.32;2.30;;;;;;;-146.87;100.00;60295.22;4980763;28;20193;-45
2023/09/01 06:01:42;;;;;;;4.20;2.30;;;;;;;-146.87;100.00;60295.22;4974553;28;20260;-45
2023/09/01 06:04:08;;;;;;;2.72;1.85;;;;;;;-146.87;100.00;60295.22;4979491;28;20288;-45
2023/09/01 06:06:35;;;;;;;3.90;2.03;;;;;;;-146.87;100.00;60295.22;4976763;28;21014;-45
2023/09/01 06:09:07;;;;;;;2.75;2.00;;;;;;;-146.87;100.00;60295.22;4977355;28;20260;-45
2023/09/01 06:11:34;;;;;;;4.53;1.98;;;;;;;-146.87;100.00;60295.22;4976727;28;20177;-45
2023/09/01 06:14:00;;;;;;;4.00;2.15;;;;;;;-146.87;100.00;60295.22;4976190;28;20189;-45
2023/09/01 06:16:26;;;;;;;5.75;2.10;;;;;;;-146.87;100.00;60295.22;4976836;28;20193;-45
2023/09/01 06:18:52;;;;;;;4.10;1.83;;;;;;;-146.87;100.00;60295.22;4974012;28;20217;-46
2023/09/01 06:21:18;;;;;;;5.55;2.08;;;;;;;-146.87;100.00;60295.22;4976300;28;20281;-45
2023/09/01 06:23:44;;;;;;;3.85;2.22;;;;;;;-146.87;100.00;60295.22;4985299;28;20941;-44
2023/09/01 06:26:14;;;;;;;3.70;2.00;;;;;;;-146.87;100.00;60295.22;4973828;28;20267;-45
2023/09/01 06:28:40;;;;;;;5.15;2.30;;;;;;;-146.87;100.00;60295.22;4973920;28;20169;-45
2023/09/01 06:31:07;;;;;;;5.40;2.17;;;;;;;-146.87;100.00;60295.22;4979113;28;20640;-45
2023/09/01 06:33:32;;;;;;;3.80;2.40;;;;;;;-146.87;100.00;60295.22;4975752;28;20595;-45
2023/09/01 06:35:58;;;;;;;3.28;1.90;;;;;;;-146.87;100.00;60295.22;4978948;28;20185;-45
2023/09/01 06:38:23;;;;;;;4.47;2.00;;;;;;;-146.87;100.00;60295.22;4979397;28;20209;-45
2023/09/01 06:40:49;;;;;;;4.00;1.80;;;;;;;-146.87;100.00;60295.22;4975525;28;20222;-45
2023/09/01 06:43:14;;;;;;;5.78;2.10;;;;;;;-146.87;100.00;60295.22;4980064;28;20212;-45
2023/09/01 06:45:40;;;;;;;3.03;1.70;;;;;;;-146.87;100.00;60295.22;4980042;28;20568;-45
2023/09/01 06:48:06;;;;;;;5.03;1.67;;;;;;;-146.87;100.00;60295.22;4976172;28;20173;-43
2023/09/01 06:50:32;;;;;;;3.40;1.75;;;;;;;-146.87;100.00;60295.22;4977059;28;20197;-45
2023/09/01 06:52:58;;;;;;;3.05;1.70;;;;;;;-146.87;100.00;60295.22;4976369;28;20190;-45
2023/09/01 06:55:24;;;;;;;2.33;1.50;;;;;;;-146.87;100.00;60295.22;4978433;28;20509;-43
2023/09/01 06:57:49;;;;;;;4.40;1.90;;;;;;;-146.87;100.00;60295.22;4978794;28;20190;-45
2023/09/01 07:00:15;;;;;;;2.95;1.70;;;;;;;-146.87;100.00;60295.22;4976517;28;20197;-43
2023/09/01 07:02:41;;;;;;;3.60;1.58;;;;;;;-146.87;100.00;60295.22;4978197;28;20178;-44
2023/09/01 07:05:07;;;;;;;5.47;1.67;;;;;;;-146.87;100.00;60295.22;4979208;28;20312;-45
2023/09/01 07:07:32;;;;;;;1.85;1.30;;;;;;;-146.87;100.00;60295.22;4980130;28;20691;-45
2023/09/01 07:09:58;;;;;;;2.38;1.35;;;;;;;-146.87;100.00;60295.22;4979491;28;20201;-43
2023/09/01 07:12:23;;;;;;;4.05;1.80;;;;;;;-146.87;100.00;60295.22;4980947;28;20720;-45
2023/09/01 07:14:49;;;;;;;3.35;1.88;;;;;;;-146.87;100.00;60295.22;4979065;28;20185;-45
2023/09/01 07:17:24;;;;;;;3.13;1.65;;;;;;;-146.87;100.00;60295.22;4975927;28;20652;-44
2023/09/01 07:19:50;;;;;;;3.67;1.92;;;;;;;-146.87;100.00;60295.22;4983164;28;20534;-44
2023/09/01 07:22:15;;;;;;;4.70;2.00;;;;;;;-146.87;100.00;60295.22;4976727;28;20186;-44
2023/09/01 07:24:41;;;;;;;2.75;1.70;;;;;;;-146.87;100.00;60295.22;4980619;28;20330;-45
2023/09/01 07:27:06;;;;;;;2.03;1.88;;;;;;;-146.87;100.00;60295.22;4974054;28;20700;-44
2023/09/01 07:29:32;;;;;;;2.75;1.65;;;;;;;-146.87;100.00;60295.22;4978553;28;20699;-45
2023/09/01 07:31:59;;;;;;;4.95;1.75;;;;;;;-146.87;100.00;60295.22;4974542;28;20181;-44
2023/09/01 07:34:26;;;;;;;2.83;1.63;;;;;;;-146.87;100.00;60295.22;4978254;28;20178;-45
2023/09/01 07:36:51;;;;;;;3.30;1.77;;;;;;;-146.87;100.00;60295.22;4975244;28;20173;-49
2023/09/01 07:39:17;;;;;;;2.40;1.58;;;;;;;-146.87;100.00;60295.22;4976736;28;20201;-45
2023/09/01 07:41:43;;;;;;;3.70;1.40;;;;;;;-146.87;100.00;60295.22;4976540;28;20217;-45
2023/09/01 07:44:09;;;;;;;2.63;1.60;;;;;;;-146.87;100.00;60295.22;4976904;28;20224;-44
2023/09/01 07:46:34;;;;;;;5.30;1.95;;;;;;;-146.87;100.00;60295.22;4976622;28;20181;-44
2023/09/01 07:49:01;;;;;;;3.45;1.73;;;;;;;-146.87;100.00;60295.22;4974740;28;20751;-44
2023/09/01 07:51:26;;;;;;;4.03;2.00;;;;;;;-146.87;100.00;60295.22;4978343;28;20555;-44
2023/09/01 07:53:54;;;;;;;2.97;1.98;;;;;;;-146.87;100.00;60295.22;4977642;28;20169;-43
2023/09/01 07:56:20;;;;;;;3.58;2.03;;;;;;;-146.87;100.00;60295.22;4975745;28;20268;-44
2023/09/01 07:58:46;;;;;;;2.90;1.75;;;;;;;-146.87;100.00;60295.22;4982247;28;20184;-44
2023/09/01 08:01:11;;;;;;;3.55;1.70;;;;;;;-146.87;100.00;60295.22;4979849;28;20209;-44
2023/09/01 08:03:37;;;;;;;1.70;1.40;;;;;;;-146.87;100.00;60295.22;4980415;28;20210;-44
2023/09/01 08:06:04;;;;;;;3.50;1.65;;;;;;;-146.87;100.00;60295.22;4981080;28;20537;-44
2023/09/01 08:08:30;;;;;;;1.63;1.48;;;;;;;-146.87;100.00;60295.22;4977948;28;20196;-45
2023/09/01 08:10:55;;;;;;;2.28;1.33;;;;;;;-146.87;100.00;60295.22;4975881;28;20217;-46
2023/09/01 08:13:22;;;;;;;1.50;1.40;;;;;;;-146.87;100.00;60295.22;4982130;28;20510;-47
2023/09/01 08:15:48;;;;;;;1.67;1.20;;;;;;;-146.87;100.00;60295.22;4978378;28;20176;-47
2023/09/01 08:18:13;;;;;;;2.83;1.85;;;;;;;-146.87;100.00;60295.22;4973059;28;20185;-45
2023/09/01 08:20:40;;;;;;;3.13;2.20;;;;;;;-146.87;100.00;60295.22;4981314;28;20193;-45
2023/09/01 08:23:06;;;;;;;5.72;2.10;;;;;;;-146.87;100.00;60295.22;4976037;28;20184;-46
2023/09/01 08:25:35;;;;;;;3.90;2.10;;;;;;;-146.87;100.00;60295.22;4979741;28;20177;-48
2023/09/01 08:28:00;;;;;;;3.38;2.00;;;;;;;-146.87;100.00;60295.22;4977690;28;20203;-47
2023/09/01 08:30:26;;;;;;;2.47;1.73;;;;;;;-146.87;100.00;60295.22;4975916;28;20206;-47
2023/09/01 08:32:52;;;;;;;2.47;1.80;;;;;;;-146.87;100.00;60295.22;4983261;28;20177;-47
2023/09/01 08:35:18;;;;;;;4.32;1.80;;;;;;;-146.87;100.00;60295.22;4975614;28;20773;-47
2023/09/01 08:37:43;;;;;;;1.90;1.50;;;;;;;-146.87;100.00;60295.22;4976320;28;20682;-46
2023/09/01 08:40:10;;;;;;;2.20;1.30;;;;;;;-146.87;100.00;60295.22;4977150;28;20688;-46
2023/09/01 08:42:44;;;;;;;3.30;1.45;;;;;;;-146.87;100.00;60295.22;4981672;28;20203;-46
2023/09/01 08:45:10;;;;;;;2.03;1.35;;;;;;;-146.87;100.00;60295.22;4976178;28;20285;-46
2023/09/01 08:47:43;;;;;;;1.65;1.42;;;;;;;-146.87;100.00;60295.22;4975916;28;20187;-46
2023/09/01 08:50:08;;;;;;;3.05;1.55;;;;;;;-146.87;100.00;60295.22;4978771;28;20205;-46
2023/09/01 08:52:35;;;;;;;2.55;1.70;;;;;;;-146.87;100.00;60295.22;4975856;28;20209;-46
2023/09/01 08:55:02;;;;;;;4.05;1.75;;;;;;;-146.87;100.00;60295.22;4974806;28;20181;-47
2023/09/01 08:57:27;;;;;;;3.30;1.40;;;;;;;-146.87;100.00;60295.22;4978738;28;20555;-46
2023/09/01 08:59:53;;;;;;;5.57;1.85;;;;;;;-146.87;100.00;60295.22;4974874;28;20201;-46
2023/09/01 09:02:18;;;;;;;2.72;1.83;;;;;;;-146.87;100.00;60295.22;4977245;28;20198;-46
2023/09/01 09:04:46;;;;;;;3.75;2.00;;;;;;;-146.87;100.00;60295.22;4974071;28;20217;-46
2023/09/01 09:07:20;;;;;;;3.33;2.03;;;;;;;-146.87;100.00;60295.22;4980609;28;20217;-47
2023/09/01 09:09:58;;;;;;;2.17;1.50;;;;;;;-146.87;100.00;60295.22;4974076;28;20598;-46
2023/09/01 09:12:33;;;;;;;2.42;1.80;;;;;;;-146.87;100.00;60295.22;4978210;28;20279;-46
2023/09/01 09:15:00;;;;;;;4.55;1.70;;;;;;;-146.87;100.00;60295.22;4978308;28;20181;-46
2023/09/01 09:17:43;;;;;;;3.95;1.52;;;;;;;-146.87;100.00;60295.22;4977089;28;20557;-47
2023/09/01 09:20:09;;;;;;;1.48;1.23;;;;;;;-146.87;100.00;60295.22;4978591;28;20200;-46
2023/09/01 09:22:56;;;;;;;2.15;1.15;;;;;;;-146.87;100.00;60295.22;4979079;28;20632;-46
2023/09/01 09:25:33;;;;;;;5.10;1.42;;;;;;;-146.87;100.00;60295.22;4977793;28;20173;-46
2023/09/01 09:28:02;;;;;;;5.60;1.27;;;;;;;-146.87;100.00;60295.22;4983157;28;20200;-45
2023/09/01 09:30:28;;;;;;;2.58;1.85;;;;;;;-146.87;100.00;60295.22;4977722;28;20205;-46
2023/09/01 09:33:05;;;;;;;2.95;1.63;;;;;;;-146.87;100.00;60295.22;4979414;28;20562;-47
2023/09/01 09:35:32;;;;;;;4.47;1.98;;;;;;;-146.87;100.00;60295.22;4978338;28;20176;-47
2023/09/01 09:37:59;;;;;;;2.47;1.63;;;;;;;-146.87;100.00;60295.22;4978814;28;20178;-46
2023/09/01 09:40:26;;;;;;;4.22;1.40;;;;;;;-146.87;100.00;60295.22;4979281;28;20198;-46
2023/09/01 09:42:52;;;;;;;4.75;1.38;;;;;;;-146.87;100.00;60295.22;4978914;28;20703;-45
2023/09/01 09:45:26;;;;;;;4.63;1.92;;;;;;;-146.87;100.00;60295.22;4981371;28;20343;-47
2023/09/01 09:47:56;;;;;;;3.17;1.50;;;;;;;-146.87;100.00;60295.22;4980051;28;20655;-47
2023/09/01 09:50:24;;;;;;;2.28;1.48;;;;;;;-146.87;100.00;60295.22;4979418;28;20687;-48
2023/09/01 09:52:55;;;;;;;2.75;1.60;;;;;;;-146.87;100.00;60295.22;4977699;28;20196;-46
2023/09/01 09:55:55;;;;;;;2.15;1.30;;;;;;;-146.87;100.00;60295.22;4978673;28;20244;-47
2023/09/01 09:58:34;;;;;;;2.13;1.70;;;;;;;-146.87;100.00;60295.22;4956472;28;20190;-46
2023/09/01 10:01:10;;;;;;;1.83;1.23;;;;;;;-146.87;100.00;60295.22;4978708;28;20633;-48
2023/09/01 10:03:36;;;;;;;2.03;1.45;;;;;;;-146.87;100.00;60295.22;4977002;28;20224;-45
2023/09/01 10:06:05;;;;;;;3.28;1.70;;;;;;;-146.87;100.00;60295.22;4981662;28;20196;-47
2023/09/01 10:08:32;;;;;;;5.97;1.63;;;;;;;-146.87;100.00;60295.22;4984641;28;20292;-46
2023/09/01 10:10:59;;;;;;;2.70;1.45;;;;;;;-146.87;100.00;60295.22;4981189;28;20205;-46
2023/09/01 10:13:26;;;;;;;2.03;1.55;;;;;;;-146.87;100.00;60295.22;4980970;28;20178;-45
2023/09/01 10:15:51;;;;;;;4.47;1.30;;;;;;;-146.87;100.00;60295.22;4978942;28;20225;-45
2023/09/01 10:18:19;;;;;;;1.85;1.20;;;;;;;-146.87;100.00;60295.22;4983854;28;20677;-46
2023/09/01 10:20:45;;;;;;;2.70;1.23;;;;;;;-146.87;100.00;60295.22;4984595;28;20217;-46
2023/09/01 10:23:12;;;;;;;1.73;1.20;;;;;;;-146.87;100.00;60295.22;4981209;28;20459;-47
2023/09/01 10:25:38;;;;;;;1.08;1.00;;;;;;;-146.87;100.00;60295.22;4986049;28;20182;-46
2023/09/01 10:28:05;;;;;;;3.35;1.45;;;;;;;-146.87;100.00;60295.22;4982545;28;20268;-46
2023/09/01 10:30:32;;;;;;;2.85;1.42;;;;;;;-146.87;100.00;60295.22;4982422;28;20224;-45
2023/09/01 10:33:25;;;;;;;1.38;1.10;;;;;;;-146.87;100.00;60295.22;4980982;28;20562;-46
2023/09/01 10:35:57;;;;;;;3.05;1.30;;;;;;;-146.87;100.00;60295.22;4983386;28;20193;-47
2023/09/01 10:38:36;;;;;;;0.95;0.80;;;;;;;-146.87;100.00;60295.22;4982193;28;20662;-46
2023/09/01 10:41:03;;;;;;;1.63;1.20;;;;;;;-146.87;100.00;60295.22;4985132;28;20342;-47
2023/09/01 10:43:31;;;;;;;1.13;0.98;;;;;;;-146.87;100.00;60295.22;4983300;28;20224;-46
2023/09/01 10:46:12;;;;;;;1.75;0.93;;;;;;;-146.87;100.00;60295.22;4980085;28;20272;-46
2023/09/01 10:48:47;;;;;;;1.35;1.10;;;;;;;-146.87;100.00;60295.22;4980255;28;20271;-45
2023/09/01 10:51:24;;;;;;;1.38;1.25;;;;;;;-146.87;100.00;60295.22;4983288;28;20221;-47
2023/09/01 10:53:52;;;;;;;2.88;1.08;;;;;;;-146.87;100.00;60295.22;4982938;28;20513;-47
2023/09/01 10:56:20;;;;;;;2.17;1.10;;;;;;;-146.87;100.00;60295.22;4984100;28;20182;-47
2023/09/01 10:58:56;;;;;;;1.35;1.10;;;;;;;-146.87;100.00;60295.22;4981563;28;20741;-45
2023/09/01 11:01:30;;;;;;;2.95;1.20;;;;;;;-146.87;100.00;60295.22;4982079;28;20205;-46
2023/09/01 11:03:56;;;;;;;3.55;1.30;;;;;;;-146.87;100.00;60295.22;4981512;28;20687;-46
2023/09/01 11:06:23;;;;;;;2.20;1.30;;;;;;;-146.87;100.00;60295.22;4979069;28;20251;-46
2023/09/01 11:09:07;;;;;;;3.63;1.50;;;;;;;-146.87;100.00;60295.22;4978976;28;20244;-46
2023/09/01 11:11:32;;;;;;;2.17;1.30;;;;;;;-146.87;100.00;60295.22;4979796;28;20185;-46